Kelley, IA (50134)

5:30 PM CDT on June 23, 2017 (GMT -0500)
North Central Regional Plant Introduction Station | | Change Station

Elev 994 ft 42.01 °N, 93.66 °W | Updated 26 seconds ago

Mostly Cloudy
Mostly Cloudy
71.1 °F
Feels Like 77 °F
N
6.0
Wind Variable Wind from WSW
Gusts 9.0 mph

Today
High -- | Low -- °F
--% Chance of Precip.
Yesterday
High -- | Low -- °F
Precip. -- in
Pressure 29.89 in
Visibility 10.0 miles
Clouds Few 5000 ft
Scattered Clouds 6000 ft
Heat Index 77 °F
Dew Point 52 °F
Humidity 52%
Rainfall 0.00 in
Snow Depth Not available.
5:39 AM 8:53 PM
Waning Crescent, 0% visible
METAR KAMW 232153Z AUTO 33016G23KT 10SM FEW050 SCT060 24/12 A2991 RMK AO2 SLP121 T02390117
Pressure 29.89 in
Visibility 10.0 miles
Clouds Few 5000 ft
Scattered Clouds 6000 ft
Heat Index 77 °F
Dew Point 52 °F
Humidity 52%
Rainfall 0.00 in
Snow Depth Not available.
5:39 AM 8:53 PM
Waning Crescent, 0% visible
METAR KAMW 232153Z AUTO 33016G23KT 10SM FEW050 SCT060 24/12 A2991 RMK AO2 SLP121 T02390117

Get Severe Weather Alerts

Thanks for signing up!

Be on the lookout for a verification email in your inbox.

You'll start receiving the daily forecast at 6 AM.

×

10-Day Weather Forecast

Almanac

Astronomy

Jun. 23, 2017 Rise Set
Actual Time
Civil Twilight
Nautical Twilight
Astronomical Twilight
Moon
Length of Visible Light
Length of Day
Tomorrow will be .
, % of the Moon is Illuminated

Today's Extremes

State Highs State Lows

Community

WunderPhotos

Category 6

Welcome to Category 6. This is the collective home for Weather Underground's featured writeups by Dr. Jeff Masters (right), Bob Henson (left), Chris Burt, and other regular contributors.

Nearby

Air Quality

  Air Quality AQ Index Pollutant
Not available.

Snow Depth

Station Depth Elevation

Earthquake Activity

City Distance Mag. Time & Date
Minimum magnitude displayed is 2.5.

Coastal Water Temperatures

Place Temperature

Stations

Nearby Weather Stations

Station Location Temp. Windchill Dew Point Humidity Wind Precip. Elev Updated Type
                   

Watches & Warnings

There are currently no watches in effect.